sensor_id;sensor_type;location;lat;lon;timestamp;pressure;altitude;pressure_sealevel;temperature;humidity
50434;BME280;36361;38.954;-9.002;2024-03-08T00:00:19;99791.88;;;10.56;100.00
50434;BME280;36361;38.954;-9.002;2024-03-08T00:01:20;99805.63;;;10.73;100.00
50434;BME280;36361;38.954;-9.002;2024-03-08T00:02:20;99805.00;;;10.82;100.00
50434;BME280;36361;38.954;-9.002;2024-03-08T00:03:21;99802.28;;;10.47;100.00
50434;BME280;36361;38.954;-9.002;2024-03-08T00:04:22;99803.84;;;10.55;100.00
50434;BME280;36361;38.954;-9.002;2024-03-08T00:05:23;99810.94;;;10.56;100.00
50434;BME280;36361;38.954;-9.002;2024-03-08T00:06:24;99812.69;;;10.50;100.00
50434;BME280;36361;38.954;-9.002;2024-03-08T00:07:25;99813.88;;;10.66;100.00
50434;BME280;36361;38.954;-9.002;2024-03-08T00:08:28;99815.16;;;10.87;100.00
50434;BME280;36361;38.954;-9.002;2024-03-08T00:09:30;99813.19;;;10.71;100.00
50434;BME280;36361;38.954;-9.002;2024-03-08T00:10:31;99811.66;;;10.63;100.00
50434;BME280;36361;38.954;-9.002;2024-03-08T00:11:32;99822.06;;;10.66;100.00
50434;BME280;36361;38.954;-9.002;2024-03-08T00:12:32;99818.84;;;10.58;100.00
50434;BME280;36361;38.954;-9.002;2024-03-08T00:13:33;99805.84;;;10.60;100.00
50434;BME280;36361;38.954;-9.002;2024-03-08T00:14:35;99798.28;;;10.62;100.00
50434;BME280;36361;38.954;-9.002;2024-03-08T00:15:37;99789.75;;;10.35;100.00
50434;BME280;36361;38.954;-9.002;2024-03-08T00:16:38;99796.38;;;10.50;100.00
50434;BME280;36361;38.954;-9.002;2024-03-08T00:17:40;99794.13;;;10.36;100.00
50434;BME280;36361;38.954;-9.002;2024-03-08T00:18:41;99782.91;;;10.44;100.00
50434;BME280;36361;38.954;-9.002;2024-03-08T00:19:42;99788.94;;;10.58;100.00
50434;BME280;36361;38.954;-9.002;2024-03-08T00:20:43;99794.84;;;10.43;100.00
50434;BME280;36361;38.954;-9.002;2024-03-08T00:21:45;99798.28;;;10.38;100.00
50434;BME280;36361;38.954;-9.002;2024-03-08T00:22:46;99779.22;;;10.50;100.00
50434;BME280;36361;38.954;-9.002;2024-03-08T00:23:47;99798.16;;;10.57;100.00
50434;BME280;36361;38.954;-9.002;2024-03-08T00:24:48;99797.69;;;10.60;100.00
50434;BME280;36361;38.954;-9.002;2024-03-08T00:25:51;99800.41;;;10.36;100.00
50434;BME280;36361;38.954;-9.002;2024-03-08T00:26:51;99801.13;;;10.43;100.00
50434;BME280;36361;38.954;-9.002;2024-03-08T00:27:54;99809.88;;;10.45;100.00
50434;BME280;36361;38.954;-9.002;2024-03-08T00:28:56;99803.00;;;10.54;100.00
50434;BME280;36361;38.954;-9.002;2024-03-08T00:29:57;99804.19;;;10.59;100.00
50434;BME280;36361;38.954;-9.002;2024-03-08T00:30:58;99807.88;;;10.52;100.00
50434;BME280;36361;38.954;-9.002;2024-03-08T00:31:59;99814.25;;;10.58;100.00
50434;BME280;36361;38.954;-9.002;2024-03-08T00:33:00;99812.94;;;10.37;100.00
50434;BME280;36361;38.954;-9.002;2024-03-08T00:34:01;99805.84;;;10.36;100.00
50434;BME280;36361;38.954;-9.002;2024-03-08T00:35:02;99810.69;;;10.58;100.00
50434;BME280;36361;38.954;-9.002;2024-03-08T00:36:03;99809.88;;;10.45;100.00
50434;BME280;36361;38.954;-9.002;2024-03-08T00:37:04;99811.47;;;10.23;100.00
50434;BME280;36361;38.954;-9.002;2024-03-08T00:38:05;99816.72;;;10.36;100.00
50434;BME280;36361;38.954;-9.002;2024-03-08T00:39:05;99821.91;;;10.38;100.00
50434;BME280;36361;38.954;-9.002;2024-03-08T00:40:07;99817.44;;;10.43;100.00
50434;BME280;36361;38.954;-9.002;2024-03-08T00:41:09;99799.72;;;10.52;100.00
50434;BME280;36361;38.954;-9.002;2024-03-08T00:42:10;99814.00;;;10.24;100.00
50434;BME280;36361;38.954;-9.002;2024-03-08T00:43:11;99819.13;;;10.14;100.00
50434;BME280;36361;38.954;-9.002;2024-03-08T00:44:12;99818.72;;;10.29;100.00
50434;BME280;36361;38.954;-9.002;2024-03-08T00:45:12;99816.34;;;10.33;100.00
50434;BME280;36361;38.954;-9.002;2024-03-08T00:46:13;99809.69;;;10.17;100.00
50434;BME280;36361;38.954;-9.002;2024-03-08T00:47:15;99807.47;;;9.84;100.00
50434;BME280;36361;38.954;-9.002;2024-03-08T00:48:16;99798.81;;;9.45;100.00
50434;BME280;36361;38.954;-9.002;2024-03-08T00:49:17;99803.31;;;9.21;100.00
50434;BME280;36361;38.954;-9.002;2024-03-08T00:50:17;99799.06;;;9.44;100.00
50434;BME280;36361;38.954;-9.002;2024-03-08T00:51:18;99798.00;;;9.45;100.00
50434;BME280;36361;38.954;-9.002;2024-03-08T00:52:19;99802.09;;;9.35;100.00
50434;BME280;36361;38.954;-9.002;2024-03-08T00:53:20;99801.81;;;9.25;100.00
50434;BME280;36361;38.954;-9.002;2024-03-08T00:54:21;99793.75;;;9.19;100.00
50434;BME280;36361;38.954;-9.002;2024-03-08T00:55:22;99787.72;;;9.47;100.00
50434;BME280;36361;38.954;-9.002;2024-03-08T00:56:22;99791.09;;;9.60;100.00
50434;BME280;36361;38.954;-9.002;2024-03-08T00:57:25;99791.94;;;9.61;100.00
50434;BME280;36361;38.954;-9.002;2024-03-08T00:58:26;99787.88;;;9.52;100.00
50434;BME280;36361;38.954;-9.002;2024-03-08T00:59:26;99784.50;;;9.68;100.00
50434;BME280;36361;38.954;-9.002;2024-03-08T01:00:27;99786.22;;;9.92;100.00
50434;BME280;36361;38.954;-9.002;2024-03-08T01:01:28;99788.88;;;9.69;100.00
50434;BME280;36361;38.954;-9.002;2024-03-08T01:02:30;99783.00;;;9.42;100.00
50434;BME280;36361;38.954;-9.002;2024-03-08T01:03:31;99774.78;;;9.30;100.00
50434;BME280;36361;38.954;-9.002;2024-03-08T01:04:32;99778.34;;;9.61;100.00
50434;BME280;36361;38.954;-9.002;2024-03-08T01:05:33;99778.72;;;9.76;100.00
50434;BME280;36361;38.954;-9.002;2024-03-08T01:06:35;99789.25;;;9.73;100.00
50434;BME280;36361;38.954;-9.002;2024-03-08T01:07:36;99784.63;;;9.73;100.00
50434;BME280;36361;38.954;-9.002;2024-03-08T01:08:37;99778.47;;;9.66;100.00
50434;BME280;36361;38.954;-9.002;2024-03-08T01:09:39;99784.81;;;9.60;100.00
50434;BME280;36361;38.954;-9.002;2024-03-08T01:10:39;99776.56;;;9.55;100.00
50434;BME280;36361;38.954;-9.002;2024-03-08T01:11:40;99781.00;;;9.79;100.00
50434;BME280;36361;38.954;-9.002;2024-03-08T01:12:42;99792.38;;;9.88;100.00
50434;BME280;36361;38.954;-9.002;2024-03-08T01:13:43;99790.25;;;9.90;100.00
50434;BME280;36361;38.954;-9.002;2024-03-08T01:14:44;99793.53;;;9.80;100.00
50434;BME280;36361;38.954;-9.002;2024-03-08T01:15:45;99796.25;;;9.80;100.00
50434;BME280;36361;38.954;-9.002;2024-03-08T01:16:46;99788.84;;;9.99;100.00
50434;BME280;36361;38.954;-9.002;2024-03-08T01:17:48;99791.09;;;10.14;100.00
50434;BME280;36361;38.954;-9.002;2024-03-08T01:18:48;99787.63;;;10.25;100.00
50434;BME280;36361;38.954;-9.002;2024-03-08T01:19:49;99794.06;;;10.01;100.00
50434;BME280;36361;38.954;-9.002;2024-03-08T01:20:50;99776.34;;;10.10;100.00
50434;BME280;36361;38.954;-9.002;2024-03-08T01:21:51;99793.47;;;9.98;100.00
50434;BME280;36361;38.954;-9.002;2024-03-08T01:22:52;99773.63;;;10.10;100.00
50434;BME280;36361;38.954;-9.002;2024-03-08T01:23:52;99789.00;;;10.16;100.00
50434;BME280;36361;38.954;-9.002;2024-03-08T01:24:53;99786.09;;;10.52;100.00
50434;BME280;36361;38.954;-9.002;2024-03-08T01:25:54;99783.50;;;10.46;100.00
50434;BME280;36361;38.954;-9.002;2024-03-08T01:26:57;99785.75;;;10.61;100.00
50434;BME280;36361;38.954;-9.002;2024-03-08T01:27:58;99772.28;;;10.42;100.00
50434;BME280;36361;38.954;-9.002;2024-03-08T01:28:58;99786.31;;;10.51;100.00
50434;BME280;36361;38.954;-9.002;2024-03-08T01:29:59;99771.41;;;10.42;100.00
50434;BME280;36361;38.954;-9.002;2024-03-08T01:31:00;99783.50;;;10.58;100.00
50434;BME280;36361;38.954;-9.002;2024-03-08T01:32:01;99793.53;;;10.69;100.00
50434;BME280;36361;38.954;-9.002;2024-03-08T01:33:02;99786.56;;;10.73;100.00
50434;BME280;36361;38.954;-9.002;2024-03-08T01:34:03;99788.00;;;10.52;100.00
50434;BME280;36361;38.954;-9.002;2024-03-08T01:35:04;99787.63;;;10.48;100.00
50434;BME280;36361;38.954;-9.002;2024-03-08T01:36:05;99792.34;;;10.41;100.00
50434;BME280;36361;38.954;-9.002;2024-03-08T01:37:06;99783.38;;;10.29;100.00
50434;BME280;36361;38.954;-9.002;2024-03-08T01:38:07;99785.03;;;10.53;100.00
50434;BME280;36361;38.954;-9.002;2024-03-08T01:39:08;99789.78;;;10.70;100.00
50434;BME280;36361;38.954;-9.002;2024-03-08T01:40:10;99782.31;;;10.65;100.00
50434;BME280;36361;38.954;-9.002;2024-03-08T01:41:11;99801.38;;;10.53;100.00
50434;BME280;36361;38.954;-9.002;2024-03-08T01:42:13;99799.72;;;10.52;100.00
50434;BME280;36361;38.954;-9.002;2024-03-08T01:43:20;99792.47;;;10.46;100.00
50434;BME280;36361;38.954;-9.002;2024-03-08T01:44:21;99787.72;;;10.42;100.00
50434;BME280;36361;38.954;-9.002;2024-03-08T01:45:21;99794.72;;;10.49;100.00
50434;BME280;36361;38.954;-9.002;2024-03-08T01:46:23;99799.22;;;10.56;100.00
50434;BME280;36361;38.954;-9.002;2024-03-08T01:47:24;99806.78;;;10.65;100.00
50434;BME280;36361;38.954;-9.002;2024-03-08T01:48:27;99803.84;;;10.55;100.00
50434;BME280;36361;38.954;-9.002;2024-03-08T01:49:29;99791.88;;;10.68;100.00
50434;BME280;36361;38.954;-9.002;2024-03-08T01:50:30;99791.75;;;10.74;100.00
50434;BME280;36361;38.954;-9.002;2024-03-08T01:51:31;99799.13;;;10.62;100.00
50434;BME280;36361;38.954;-9.002;2024-03-08T01:52:33;99794.34;;;10.69;100.00
50434;BME280;36361;38.954;-9.002;2024-03-08T01:53:34;99792.63;;;10.51;100.00
50434;BME280;36361;38.954;-9.002;2024-03-08T01:54:36;99794.38;;;10.46;100.00
50434;BME280;36361;38.954;-9.002;2024-03-08T01:55:37;99790.94;;;10.27;100.00
50434;BME280;36361;38.954;-9.002;2024-03-08T01:56:38;99787.47;;;10.20;100.00
50434;BME280;36361;38.954;-9.002;2024-03-08T01:57:39;99792.25;;;10.24;100.00
50434;BME280;36361;38.954;-9.002;2024-03-08T01:58:43;99780.72;;;10.11;100.00
50434;BME280;36361;38.954;-9.002;2024-03-08T01:59:44;99787.97;;;10.29;100.00
50434;BME280;36361;38.954;-9.002;2024-03-08T02:00:47;99774.97;;;10.31;100.00
50434;BME280;36361;38.954;-9.002;2024-03-08T02:01:50;99784.44;;;10.28;100.00
50434;BME280;36361;38.954;-9.002;2024-03-08T02:02:54;99783.72;;;10.33;100.00
50434;BME280;36361;38.954;-9.002;2024-03-08T02:03:55;99786.81;;;10.48;100.00
50434;BME280;36361;38.954;-9.002;2024-03-08T02:04:55;99788.00;;;10.64;100.00
50434;BME280;36361;38.954;-9.002;2024-03-08T02:05:56;99793.53;;;10.69;100.00
50434;BME280;36361;38.954;-9.002;2024-03-08T02:06:59;99790.00;;;10.57;100.00
50434;BME280;36361;38.954;-9.002;2024-03-08T02:08:01;99791.66;;;10.58;100.00
50434;BME280;36361;38.954;-9.002;2024-03-08T02:09:03;99790.47;;;10.53;100.00
50434;BME280;36361;38.954;-9.002;2024-03-08T02:10:07;99789.41;;;10.54;100.00
50434;BME280;36361;38.954;-9.002;2024-03-08T02:11:08;99790.94;;;10.50;100.00
50434;BME280;36361;38.954;-9.002;2024-03-08T02:12:09;99792.47;;;10.46;100.00
50434;BME280;36361;38.954;-9.002;2024-03-08T02:13:13;99788.09;;;10.45;100.00
50434;BME280;36361;38.954;-9.002;2024-03-08T02:14:14;99788.09;;;10.45;100.00
50434;BME280;36361;38.954;-9.002;2024-03-08T02:15:14;99797.00;;;10.52;100.00
50434;BME280;36361;38.954;-9.002;2024-03-08T02:16:22;99797.34;;;10.44;100.00
50434;BME280;36361;38.954;-9.002;2024-03-08T02:17:23;99798.41;;;10.55;100.00
50434;BME280;36361;38.954;-9.002;2024-03-08T02:18:23;99795.44;;;10.57;100.00
50434;BME280;36361;38.954;-9.002;2024-03-08T02:19:24;99804.19;;;10.82;100.00
50434;BME280;36361;38.954;-9.002;2024-03-08T02:20:29;99797.53;;;10.78;100.00
50434;BME280;36361;38.954;-9.002;2024-03-08T02:21:29;99798.50;;;10.83;100.00
50434;BME280;36361;38.954;-9.002;2024-03-08T02:22:31;99803.00;;;10.78;100.00
50434;BME280;36361;38.954;-9.002;2024-03-08T02:23:33;99796.38;;;10.74;100.00
50434;BME280;36361;38.954;-9.002;2024-03-08T02:24:34;99795.22;;;10.70;100.00
50434;BME280;36361;38.954;-9.002;2024-03-08T02:25:35;99800.66;;;10.46;100.00
50434;BME280;36361;38.954;-9.002;2024-03-08T02:26:36;99803.84;;;10.55;100.00
50434;BME280;36361;38.954;-9.002;2024-03-08T02:27:38;99798.75;;;10.59;100.00
50434;BME280;36361;38.954;-9.002;2024-03-08T02:28:39;99808.09;;;10.63;100.00
50434;BME280;36361;38.954;-9.002;2024-03-08T02:29:42;99805.13;;;10.76;100.00
50434;BME280;36361;38.954;-9.002;2024-03-08T02:30:43;99797.06;;;10.69;100.00
50434;BME280;36361;38.954;-9.002;2024-03-08T02:31:43;99808.81;;;10.81;100.00
50434;BME280;36361;38.954;-9.002;2024-03-08T02:32:44;99803.91;;;10.95;100.00
50434;BME280;36361;38.954;-9.002;2024-03-08T02:33:45;99804.78;;;10.84;100.00
50434;BME280;36361;38.954;-9.002;2024-03-08T02:34:48;99805.72;;;10.78;100.00
50434;BME280;36361;38.954;-9.002;2024-03-08T02:35:49;99804.91;;;10.66;100.00
50434;BME280;36361;38.954;-9.002;2024-03-08T02:36:51;99800.28;;;10.78;100.00
50434;BME280;36361;38.954;-9.002;2024-03-08T02:37:52;99797.91;;;10.81;100.00
50434;BME280;36361;38.954;-9.002;2024-03-08T02:38:52;99809.66;;;10.70;100.00
50434;BME280;36361;38.954;-9.002;2024-03-08T02:39:56;99804.91;;;10.66;100.00
50434;BME280;36361;38.954;-9.002;2024-03-08T02:40:56;99801.59;;;10.64;100.00
50434;BME280;36361;38.954;-9.002;2024-03-08T02:41:57;99797.31;;;10.91;100.00
50434;BME280;36361;38.954;-9.002;2024-03-08T02:42:58;99804.69;;;10.79;100.00
50434;BME280;36361;38.954;-9.002;2024-03-08T02:43:59;99797.91;;;10.93;100.00
50434;BME280;36361;38.954;-9.002;2024-03-08T02:45:00;99792.84;;;10.62;100.00
50434;BME280;36361;38.954;-9.002;2024-03-08T02:46:01;99800.41;;;10.60;100.00
50434;BME280;36361;38.954;-9.002;2024-03-08T02:47:02;99799.09;;;10.74;100.00
50434;BME280;36361;38.954;-9.002;2024-03-08T02:48:03;99793.88;;;10.84;100.00
50434;BME280;36361;38.954;-9.002;2024-03-08T02:49:04;99797.81;;;10.88;100.00
50434;BME280;36361;38.954;-9.002;2024-03-08T02:50:05;99797.91;;;10.93;100.00
50434;BME280;36361;38.954;-9.002;2024-03-08T02:51:08;99797.53;;;10.78;100.00
50434;BME280;36361;38.954;-9.002;2024-03-08T02:52:11;99796.69;;;11.01;100.00
50434;BME280;36361;38.954;-9.002;2024-03-08T02:53:12;99797.16;;;11.09;100.00
50434;BME280;36361;38.954;-9.002;2024-03-08T02:54:13;99797.25;;;11.15;100.00
50434;BME280;36361;38.954;-9.002;2024-03-08T02:55:14;99796.22;;;11.04;100.00
50434;BME280;36361;38.954;-9.002;2024-03-08T02:56:18;99800.50;;;11.00;100.00
50434;BME280;36361;38.954;-9.002;2024-03-08T02:57:19;99797.81;;;10.88;100.00
50434;BME280;36361;38.954;-9.002;2024-03-08T02:58:20;99787.63;;;10.72;100.00
50434;BME280;36361;38.954;-9.002;2024-03-08T02:59:21;99799.19;;;11.02;100.00
50434;BME280;36361;38.954;-9.002;2024-03-08T03:00:22;99795.16;;;10.93;100.00
50434;BME280;36361;38.954;-9.002;2024-03-08T03:01:23;99793.66;;;10.74;100.00
50434;BME280;36361;38.954;-9.002;2024-03-08T03:02:24;99787.72;;;10.77;100.00
50434;BME280;36361;38.954;-9.002;2024-03-08T03:03:26;99794.47;;;10.86;100.00
50434;BME280;36361;38.954;-9.002;2024-03-08T03:04:27;99795.06;;;10.76;100.00
50434;BME280;36361;38.954;-9.002;2024-03-08T03:05:29;99784.88;;;10.83;100.00
50434;BME280;36361;38.954;-9.002;2024-03-08T03:06:32;99792.81;;;10.85;100.00
50434;BME280;36361;38.954;-9.002;2024-03-08T03:07:34;99794.09;;;10.94;100.00
50434;BME280;36361;38.954;-9.002;2024-03-08T03:08:35;99792.34;;;10.88;100.00
50434;BME280;36361;38.954;-9.002;2024-03-08T03:09:36;99797.19;;;10.86;100.00
50434;BME280;36361;38.954;-9.002;2024-03-08T03:10:37;99799.91;;;10.86;100.00
50434;BME280;36361;38.954;-9.002;2024-03-08T03:11:38;99800.16;;;10.73;100.00
50434;BME280;36361;38.954;-9.002;2024-03-08T03:12:39;99804.19;;;10.82;100.00
50434;BME280;36361;38.954;-9.002;2024-03-08T03:13:39;99797.31;;;10.91;100.00
50434;BME280;36361;38.954;-9.002;2024-03-08T03:14:42;99793.84;;;10.96;100.00
50434;BME280;36361;38.954;-9.002;2024-03-08T03:15:43;99789.25;;;10.96;100.00
50434;BME280;36361;38.954;-9.002;2024-03-08T03:16:44;99786.19;;;10.69;100.00
50434;BME280;36361;38.954;-9.002;2024-03-08T03:17:47;99788.56;;;10.89;100.00
50434;BME280;36361;38.954;-9.002;2024-03-08T03:18:48;99796.25;;;10.92;100.00
50434;BME280;36361;38.954;-9.002;2024-03-08T03:19:50;99791.50;;;10.99;100.00
50434;BME280;36361;38.954;-9.002;2024-03-08T03:20:52;99794.19;;;11.11;100.00
50434;BME280;36361;38.954;-9.002;2024-03-08T03:21:52;99784.78;;;10.90;100.00
50434;BME280;36361;38.954;-9.002;2024-03-08T03:22:53;99797.28;;;11.03;100.00
50434;BME280;36361;38.954;-9.002;2024-03-08T03:23:57;99788.63;;;11.06;100.00
50434;BME280;36361;38.954;-9.002;2024-03-08T03:24:59;99792.28;;;11.11;100.00
50434;BME280;36361;38.954;-9.002;2024-03-08T03:26:01;99795.75;;;11.07;100.00
50434;BME280;36361;38.954;-9.002;2024-03-08T03:27:03;99795.88;;;11.00;100.00
50434;BME280;36361;38.954;-9.002;2024-03-08T03:28:11;99798.31;;;11.14;100.00
50434;BME280;36361;38.954;-9.002;2024-03-08T03:29:15;99792.59;;;10.75;100.00
50434;BME280;36361;38.954;-9.002;2024-03-08T03:30:17;99789.66;;;10.53;100.00
50434;BME280;36361;38.954;-9.002;2024-03-08T03:31:24;99797.09;;;10.81;100.00
50434;BME280;36361;38.954;-9.002;2024-03-08T03:32:26;99788.00;;;10.52;100.00
50434;BME280;36361;38.954;-9.002;2024-03-08T03:33:27;99791.06;;;10.67;100.00
50434;BME280;36361;38.954;-9.002;2024-03-08T03:34:28;99790.59;;;10.59;100.00
50434;BME280;36361;38.954;-9.002;2024-03-08T03:35:29;99779.00;;;10.28;100.00
50434;BME280;36361;38.954;-9.002;2024-03-08T03:36:30;99791.06;;;9.90;100.00
50434;BME280;36361;38.954;-9.002;2024-03-08T03:37:31;99787.84;;;9.70;100.00
50434;BME280;36361;38.954;-9.002;2024-03-08T03:38:32;99784.56;;;9.80;100.00
50434;BME280;36361;38.954;-9.002;2024-03-08T03:39:34;99783.91;;;10.08;100.00
50434;BME280;36361;38.954;-9.002;2024-03-08T03:40:41;99786.38;;;9.97;100.00
50434;BME280;36361;38.954;-9.002;2024-03-08T03:41:42;99789.16;;;9.79;100.00
50434;BME280;36361;38.954;-9.002;2024-03-08T03:42:45;99789.16;;;9.79;100.00
50434;BME280;36361;38.954;-9.002;2024-03-08T03:43:46;99779.69;;;9.70;100.00
50434;BME280;36361;38.954;-9.002;2024-03-08T03:44:47;99784.22;;;9.88;100.00
50434;BME280;36361;38.954;-9.002;2024-03-08T03:45:49;99775.75;;;9.66;100.00
50434;BME280;36361;38.954;-9.002;2024-03-08T03:46:49;99778.56;;;9.59;100.00
50434;BME280;36361;38.954;-9.002;2024-03-08T03:47:53;99784.44;;;9.86;100.00
50434;BME280;36361;38.954;-9.002;2024-03-08T03:48:54;99773.38;;;10.00;100.00
50434;BME280;36361;38.954;-9.002;2024-03-08T03:49:55;99780.88;;;9.74;100.00
50434;BME280;36361;38.954;-9.002;2024-03-08T03:50:56;99784.38;;;9.63;100.00
50434;BME280;36361;38.954;-9.002;2024-03-08T03:51:57;99777.47;;;9.49;100.00
50434;BME280;36361;38.954;-9.002;2024-03-08T03:52:58;99778.28;;;9.49;100.00
50434;BME280;36361;38.954;-9.002;2024-03-08T03:53:59;99778.06;;;9.51;100.00
50434;BME280;36361;38.954;-9.002;2024-03-08T03:54:59;99767.88;;;9.76;100.00
50434;BME280;36361;38.954;-9.002;2024-03-08T03:56:00;99770.81;;;9.75;100.00
50434;BME280;36361;38.954;-9.002;2024-03-08T03:57:01;99775.47;;;9.56;100.00
50434;BME280;36361;38.954;-9.002;2024-03-08T03:58:03;99773.69;;;9.50;100.00
50434;BME280;36361;38.954;-9.002;2024-03-08T03:59:04;99778.75;;;9.46;100.00
50434;BME280;36361;38.954;-9.002;2024-03-08T04:00:05;99777.03;;;9.52;100.00
50434;BME280;36361;38.954;-9.002;2024-03-08T04:01:13;99780.63;;;9.76;100.00
50434;BME280;36361;38.954;-9.002;2024-03-08T04:02:13;99772.34;;;9.71;100.00
50434;BME280;36361;38.954;-9.002;2024-03-08T04:03:15;99779.78;;;9.63;100.00
50434;BME280;36361;38.954;-9.002;2024-03-08T04:04:17;99782.88;;;9.49;100.00
50434;BME280;36361;38.954;-9.002;2024-03-08T04:05:18;99785.59;;;9.49;100.00
50434;BME280;36361;38.954;-9.002;2024-03-08T04:06:19;99782.63;;;9.38;100.00
50434;BME280;36361;38.954;-9.002;2024-03-08T04:07:20;99793.06;;;9.05;100.00
50434;BME280;36361;38.954;-9.002;2024-03-08T04:08:21;99785.59;;;9.00;100.00
50434;BME280;36361;38.954;-9.002;2024-03-08T04:09:22;99777.69;;;8.99;100.00
50434;BME280;36361;38.954;-9.002;2024-03-08T04:10:22;99787.47;;;9.18;100.00
50434;BME280;36361;38.954;-9.002;2024-03-08T04:11:23;99795.25;;;9.33;100.00
50434;BME280;36361;38.954;-9.002;2024-03-08T04:12:24;99785.81;;;9.35;100.00
50434;BME280;36361;38.954;-9.002;2024-03-08T04:13:25;99786.25;;;9.14;100.00
50434;BME280;36361;38.954;-9.002;2024-03-08T04:14:26;99790.97;;;9.07;100.00
50434;BME280;36361;38.954;-9.002;2024-03-08T04:15:27;99801.34;;;9.10;100.00
50434;BME280;36361;38.954;-9.002;2024-03-08T04:16:28;99800.06;;;9.12;100.00
50434;BME280;36361;38.954;-9.002;2024-03-08T04:17:29;99799.22;;;9.12;100.00
50434;BME280;36361;38.954;-9.002;2024-03-08T04:18:30;99793.16;;;8.98;100.00
50434;BME280;36361;38.954;-9.002;2024-03-08T04:19:30;99797.28;;;9.01;100.00
50434;BME280;36361;38.954;-9.002;2024-03-08T04:20:31;99809.78;;;8.83;100.00
50434;BME280;36361;38.954;-9.002;2024-03-08T04:21:32;99803.31;;;9.21;100.00
50434;BME280;36361;38.954;-9.002;2024-03-08T04:22:34;99800.56;;;9.39;100.00
50434;BME280;36361;38.954;-9.002;2024-03-08T04:23:36;99803.72;;;9.55;100.00
50434;BME280;36361;38.954;-9.002;2024-03-08T04:24:36;99797.81;;;9.58;100.00
50434;BME280;36361;38.954;-9.002;2024-03-08T04:25:37;99795.25;;;9.63;100.00
50434;BME280;36361;38.954;-9.002;2024-03-08T04:26:38;99798.63;;;9.58;100.00
50434;BME280;36361;38.954;-9.002;2024-03-08T04:27:39;99797.75;;;9.76;100.00
50434;BME280;36361;38.954;-9.002;2024-03-08T04:28:41;99798.06;;;9.68;100.00
50434;BME280;36361;38.954;-9.002;2024-03-08T04:29:41;99796.63;;;9.54;100.00
50434;BME280;36361;38.954;-9.002;2024-03-08T04:30:43;99795.78;;;9.53;100.00
50434;BME280;36361;38.954;-9.002;2024-03-08T04:31:43;99800.13;;;9.43;100.00
50434;BME280;36361;38.954;-9.002;2024-03-08T04:32:45;99793.31;;;9.52;100.00
50434;BME280;36361;38.954;-9.002;2024-03-08T04:33:45;99794.50;;;9.56;100.00
50434;BME280;36361;38.954;-9.002;2024-03-08T04:34:46;99788.66;;;9.71;100.00
50434;BME280;36361;38.954;-9.002;2024-03-08T04:35:47;99790.56;;;9.70;100.00
50434;BME280;36361;38.954;-9.002;2024-03-08T04:36:48;99794.59;;;9.79;100.00
50434;BME280;36361;38.954;-9.002;2024-03-08T04:37:49;99791.31;;;9.59;100.00
50434;BME280;36361;38.954;-9.002;2024-03-08T04:38:50;99793.91;;;9.54;100.00
50434;BME280;36361;38.954;-9.002;2024-03-08T04:39:51;99784.53;;;9.50;100.00
50434;BME280;36361;38.954;-9.002;2024-03-08T04:40:52;99791.25;;;9.77;100.00
50434;BME280;36361;38.954;-9.002;2024-03-08T04:41:55;99797.38;;;9.61;100.00
50434;BME280;36361;38.954;-9.002;2024-03-08T04:42:58;99797.38;;;9.61;100.00
50434;BME280;36361;38.954;-9.002;2024-03-08T04:43:59;99791.94;;;9.61;100.00
50434;BME280;36361;38.954;-9.002;2024-03-08T04:45:00;99785.56;;;9.67;100.00
50434;BME280;36361;38.954;-9.002;2024-03-08T04:46:01;99792.69;;;9.80;100.00
50434;BME280;36361;38.954;-9.002;2024-03-08T04:47:04;99793.84;;;9.72;100.00
50434;BME280;36361;38.954;-9.002;2024-03-08T04:48:06;99785.63;;;9.79;100.00
50434;BME280;36361;38.954;-9.002;2024-03-08T04:49:08;99799.66;;;9.87;100.00
50434;BME280;36361;38.954;-9.002;2024-03-08T04:50:09;99801.00;;;9.96;100.00
50434;BME280;36361;38.954;-9.002;2024-03-08T04:51:10;99802.94;;;10.08;100.00
50434;BME280;36361;38.954;-9.002;2024-03-08T04:52:11;99802.69;;;10.09;100.00
50434;BME280;36361;38.954;-9.002;2024-03-08T04:53:12;99808.47;;;10.01;100.00
50434;BME280;36361;38.954;-9.002;2024-03-08T04:54:14;99809.06;;;10.15;100.00
50434;BME280;36361;38.954;-9.002;2024-03-08T04:55:15;99812.59;;;10.04;100.00
50434;BME280;36361;38.954;-9.002;2024-03-08T04:56:15;99802.06;;;9.95;100.00
50434;BME280;36361;38.954;-9.002;2024-03-08T04:57:16;99804.63;;;10.32;100.00
50434;BME280;36361;38.954;-9.002;2024-03-08T04:58:18;99804.78;;;9.95;100.00
50434;BME280;36361;38.954;-9.002;2024-03-08T04:59:19;99816.97;;;10.05;100.00
50434;BME280;36361;38.954;-9.002;2024-03-08T05:00:20;99805.19;;;10.11;100.00
50434;BME280;36361;38.954;-9.002;2024-03-08T05:01:21;99806.50;;;10.20;100.00
50434;BME280;36361;38.954;-9.002;2024-03-08T05:02:22;99816.19;;;10.16;100.00
50434;BME280;36361;38.954;-9.002;2024-03-08T05:03:23;99813.59;;;10.21;100.00
50434;BME280;36361;38.954;-9.002;2024-03-08T05:04:27;99819.44;;;10.36;100.00
50434;BME280;36361;38.954;-9.002;2024-03-08T05:05:29;99818.84;;;10.34;100.00
50434;BME280;36361;38.954;-9.002;2024-03-08T05:06:30;99823.28;;;10.17;100.00
50434;BME280;36361;38.954;-9.002;2024-03-08T05:07:31;99831.97;;;10.25;100.00
50434;BME280;36361;38.954;-9.002;2024-03-08T05:08:33;99827.50;;;10.13;100.00
50434;BME280;36361;38.954;-9.002;2024-03-08T05:09:35;99825.34;;;9.91;100.00
50434;BME280;36361;38.954;-9.002;2024-03-08T05:10:36;99833.84;;;9.95;100.00
50434;BME280;36361;38.954;-9.002;2024-03-08T05:11:37;99838.97;;;10.03;100.00
50434;BME280;36361;38.954;-9.002;2024-03-08T05:12:38;99838.97;;;9.73;100.00
50434;BME280;36361;38.954;-9.002;2024-03-08T05:13:39;99834.38;;;9.44;100.00
50434;BME280;36361;38.954;-9.002;2024-03-08T05:14:40;99829.63;;;9.21;100.00
50434;BME280;36361;38.954;-9.002;2024-03-08T05:15:41;99838.59;;;9.21;100.00
50434;BME280;36361;38.954;-9.002;2024-03-08T05:16:46;99837.09;;;8.89;100.00
50434;BME280;36361;38.954;-9.002;2024-03-08T05:17:50;99842.38;;;9.02;100.00